sensor_id;sensor_type;location;lat;lon;timestamp;temperature;humidity
23671;DHT22;12012;51.998;7.614;2023-12-14T00:00:26;6.30;99.90
23671;DHT22;12012;51.998;7.614;2023-12-14T00:02:52;6.20;99.90
23671;DHT22;12012;51.998;7.614;2023-12-14T00:05:17;6.20;99.90
23671;DHT22;12012;51.998;7.614;2023-12-14T00:07:43;6.20;99.90
23671;DHT22;12012;51.998;7.614;2023-12-14T00:10:09;6.20;99.90
23671;DHT22;12012;51.998;7.614;2023-12-14T00:12:34;6.20;99.90
23671;DHT22;12012;51.998;7.614;2023-12-14T00:15:00;6.20;99.90
23671;DHT22;12012;51.998;7.614;2023-12-14T00:17:25;6.20;99.90
23671;DHT22;12012;51.998;7.614;2023-12-14T00:19:51;6.20;99.90
23671;DHT22;12012;51.998;7.614;2023-12-14T00:22:16;6.20;99.90
23671;DHT22;12012;51.998;7.614;2023-12-14T00:24:42;6.20;99.90
23671;DHT22;12012;51.998;7.614;2023-12-14T00:27:08;6.20;99.90
23671;DHT22;12012;51.998;7.614;2023-12-14T00:29:33;6.20;99.90
23671;DHT22;12012;51.998;7.614;2023-12-14T00:31:59;6.20;99.90
23671;DHT22;12012;51.998;7.614;2023-12-14T00:34:24;6.20;99.90
23671;DHT22;12012;51.998;7.614;2023-12-14T00:36:50;6.20;99.90
23671;DHT22;12012;51.998;7.614;2023-12-14T00:39:15;6.20;99.90
23671;DHT22;12012;51.998;7.614;2023-12-14T00:41:41;6.20;99.90
23671;DHT22;12012;51.998;7.614;2023-12-14T00:44:07;6.20;99.90
23671;DHT22;12012;51.998;7.614;2023-12-14T00:46:32;6.20;99.90
23671;DHT22;12012;51.998;7.614;2023-12-14T00:48:58;6.20;99.90
23671;DHT22;12012;51.998;7.614;2023-12-14T00:51:23;6.10;99.90
23671;DHT22;12012;51.998;7.614;2023-12-14T00:53:49;6.10;99.90
23671;DHT22;12012;51.998;7.614;2023-12-14T00:56:14;6.10;99.90
23671;DHT22;12012;51.998;7.614;2023-12-14T00:58:40;6.10;99.90
23671;DHT22;12012;51.998;7.614;2023-12-14T01:01:05;6.00;99.90
23671;DHT22;12012;51.998;7.614;2023-12-14T01:03:31;6.00;99.90
23671;DHT22;12012;51.998;7.614;2023-12-14T01:05:57;6.00;99.90
23671;DHT22;12012;51.998;7.614;2023-12-14T01:08:22;6.00;99.90
23671;DHT22;12012;51.998;7.614;2023-12-14T01:10:48;6.00;99.90
23671;DHT22;12012;51.998;7.614;2023-12-14T01:13:13;6.00;99.90
23671;DHT22;12012;51.998;7.614;2023-12-14T01:15:39;6.00;99.90
23671;DHT22;12012;51.998;7.614;2023-12-14T01:18:04;5.90;99.90
23671;DHT22;12012;51.998;7.614;2023-12-14T01:20:30;5.90;99.90
23671;DHT22;12012;51.998;7.614;2023-12-14T01:22:55;5.90;99.90
23671;DHT22;12012;51.998;7.614;2023-12-14T01:25:21;6.00;99.90
23671;DHT22;12012;51.998;7.614;2023-12-14T01:27:47;5.90;99.90
23671;DHT22;12012;51.998;7.614;2023-12-14T01:30:12;5.90;99.90
23671;DHT22;12012;51.998;7.614;2023-12-14T01:32:38;5.90;99.90
23671;DHT22;12012;51.998;7.614;2023-12-14T01:35:04;5.90;99.90
23671;DHT22;12012;51.998;7.614;2023-12-14T01:37:30;5.90;99.90
23671;DHT22;12012;51.998;7.614;2023-12-14T01:39:55;6.00;99.90
23671;DHT22;12012;51.998;7.614;2023-12-14T01:42:21;5.90;99.90
23671;DHT22;12012;51.998;7.614;2023-12-14T01:44:46;6.00;99.90
23671;DHT22;12012;51.998;7.614;2023-12-14T01:47:12;6.00;99.90
23671;DHT22;12012;51.998;7.614;2023-12-14T01:49:37;6.00;99.90
23671;DHT22;12012;51.998;7.614;2023-12-14T01:52:03;5.90;99.90
23671;DHT22;12012;51.998;7.614;2023-12-14T01:54:29;5.90;99.90
23671;DHT22;12012;51.998;7.614;2023-12-14T01:56:54;5.90;99.90
23671;DHT22;12012;51.998;7.614;2023-12-14T01:59:20;5.90;99.90
23671;DHT22;12012;51.998;7.614;2023-12-14T02:01:47;5.90;99.90
23671;DHT22;12012;51.998;7.614;2023-12-14T02:04:17;5.80;99.90
23671;DHT22;12012;51.998;7.614;2023-12-14T02:06:43;5.80;99.90
23671;DHT22;12012;51.998;7.614;2023-12-14T02:09:08;5.80;99.90
23671;DHT22;12012;51.998;7.614;2023-12-14T02:11:35;5.80;99.90
23671;DHT22;12012;51.998;7.614;2023-12-14T02:14:05;5.80;99.90
23671;DHT22;12012;51.998;7.614;2023-12-14T02:16:31;5.80;99.90
23671;DHT22;12012;51.998;7.614;2023-12-14T02:18:57;5.80;99.90
23671;DHT22;12012;51.998;7.614;2023-12-14T02:21:22;5.70;99.90
23671;DHT22;12012;51.998;7.614;2023-12-14T02:23:48;5.70;99.90
23671;DHT22;12012;51.998;7.614;2023-12-14T02:26:13;5.70;99.90
23671;DHT22;12012;51.998;7.614;2023-12-14T02:28:39;5.70;99.90
23671;DHT22;12012;51.998;7.614;2023-12-14T02:31:05;5.70;99.90
23671;DHT22;12012;51.998;7.614;2023-12-14T02:33:31;5.70;99.90
23671;DHT22;12012;51.998;7.614;2023-12-14T02:35:57;5.70;99.90
23671;DHT22;12012;51.998;7.614;2023-12-14T02:38:22;5.70;99.90
23671;DHT22;12012;51.998;7.614;2023-12-14T02:40:48;5.70;99.90
23671;DHT22;12012;51.998;7.614;2023-12-14T02:43:15;5.70;99.90
23671;DHT22;12012;51.998;7.614;2023-12-14T02:45:41;5.70;99.90
23671;DHT22;12012;51.998;7.614;2023-12-14T02:48:07;5.70;99.90
23671;DHT22;12012;51.998;7.614;2023-12-14T02:50:32;5.70;99.90
23671;DHT22;12012;51.998;7.614;2023-12-14T02:52:58;5.60;99.90
23671;DHT22;12012;51.998;7.614;2023-12-14T02:55:23;5.60;99.90
23671;DHT22;12012;51.998;7.614;2023-12-14T02:57:49;5.60;99.90
23671;DHT22;12012;51.998;7.614;2023-12-14T03:00:14;5.60;99.90
23671;DHT22;12012;51.998;7.614;2023-12-14T03:02:40;5.60;99.90
23671;DHT22;12012;51.998;7.614;2023-12-14T03:05:06;5.60;99.90
23671;DHT22;12012;51.998;7.614;2023-12-14T03:07:32;5.60;99.90
23671;DHT22;12012;51.998;7.614;2023-12-14T03:09:57;5.60;99.90
23671;DHT22;12012;51.998;7.614;2023-12-14T03:12:23;5.60;99.90
23671;DHT22;12012;51.998;7.614;2023-12-14T03:14:48;5.60;99.90
23671;DHT22;12012;51.998;7.614;2023-12-14T03:17:14;5.60;99.90
23671;DHT22;12012;51.998;7.614;2023-12-14T03:19:40;5.60;99.90
23671;DHT22;12012;51.998;7.614;2023-12-14T03:22:09;5.60;99.90
23671;DHT22;12012;51.998;7.614;2023-12-14T03:24:35;5.60;99.90
23671;DHT22;12012;51.998;7.614;2023-12-14T03:27:04;5.50;99.90
23671;DHT22;12012;51.998;7.614;2023-12-14T03:29:30;5.50;99.90
23671;DHT22;12012;51.998;7.614;2023-12-14T03:31:56;5.50;99.90
23671;DHT22;12012;51.998;7.614;2023-12-14T03:34:22;5.50;99.90
23671;DHT22;12012;51.998;7.614;2023-12-14T03:36:48;5.50;99.90
23671;DHT22;12012;51.998;7.614;2023-12-14T03:39:13;5.50;99.90
23671;DHT22;12012;51.998;7.614;2023-12-14T03:41:39;5.50;99.90
23671;DHT22;12012;51.998;7.614;2023-12-14T03:44:05;5.50;99.90
23671;DHT22;12012;51.998;7.614;2023-12-14T03:46:30;5.50;99.90
23671;DHT22;12012;51.998;7.614;2023-12-14T03:48:56;5.50;99.90
23671;DHT22;12012;51.998;7.614;2023-12-14T03:51:22;5.50;99.90
23671;DHT22;12012;51.998;7.614;2023-12-14T03:53:47;5.50;99.90
23671;DHT22;12012;51.998;7.614;2023-12-14T03:56:13;5.50;99.90
23671;DHT22;12012;51.998;7.614;2023-12-14T03:58:38;5.50;99.90
23671;DHT22;12012;51.998;7.614;2023-12-14T04:01:04;5.50;99.90
23671;DHT22;12012;51.998;7.614;2023-12-14T04:03:30;5.50;99.90
23671;DHT22;12012;51.998;7.614;2023-12-14T04:05:55;5.50;99.90
23671;DHT22;12012;51.998;7.614;2023-12-14T04:08:21;5.40;99.90
23671;DHT22;12012;51.998;7.614;2023-12-14T04:10:46;5.50;99.90
23671;DHT22;12012;51.998;7.614;2023-12-14T04:13:12;5.40;99.90
23671;DHT22;12012;51.998;7.614;2023-12-14T04:15:38;5.40;99.90
23671;DHT22;12012;51.998;7.614;2023-12-14T04:18:03;5.40;99.90
23671;DHT22;12012;51.998;7.614;2023-12-14T04:20:31;5.30;99.90
23671;DHT22;12012;51.998;7.614;2023-12-14T04:22:57;5.40;99.90
23671;DHT22;12012;51.998;7.614;2023-12-14T04:25:22;5.40;99.90
23671;DHT22;12012;51.998;7.614;2023-12-14T04:27:48;5.40;99.90
23671;DHT22;12012;51.998;7.614;2023-12-14T04:30:14;5.30;99.90
23671;DHT22;12012;51.998;7.614;2023-12-14T04:32:39;5.40;99.90
23671;DHT22;12012;51.998;7.614;2023-12-14T04:35:05;5.30;99.90
23671;DHT22;12012;51.998;7.614;2023-12-14T04:37:31;5.30;99.90
23671;DHT22;12012;51.998;7.614;2023-12-14T04:39:57;5.30;99.90
23671;DHT22;12012;51.998;7.614;2023-12-14T04:42:23;5.30;99.90
23671;DHT22;12012;51.998;7.614;2023-12-14T04:44:49;5.40;99.90
23671;DHT22;12012;51.998;7.614;2023-12-14T04:47:14;5.30;99.90
23671;DHT22;12012;51.998;7.614;2023-12-14T04:49:40;5.40;99.90
23671;DHT22;12012;51.998;7.614;2023-12-14T04:52:06;5.30;99.90
23671;DHT22;12012;51.998;7.614;2023-12-14T04:54:31;5.40;99.90
23671;DHT22;12012;51.998;7.614;2023-12-14T04:56:57;5.40;99.90
23671;DHT22;12012;51.998;7.614;2023-12-14T04:59:22;5.40;99.90
23671;DHT22;12012;51.998;7.614;2023-12-14T05:01:48;5.40;99.90
23671;DHT22;12012;51.998;7.614;2023-12-14T05:04:14;5.40;99.90
23671;DHT22;12012;51.998;7.614;2023-12-14T05:06:40;5.40;99.90
23671;DHT22;12012;51.998;7.614;2023-12-14T05:09:06;5.40;99.90
23671;DHT22;12012;51.998;7.614;2023-12-14T05:11:32;5.40;99.90
23671;DHT22;12012;51.998;7.614;2023-12-14T05:13:58;5.40;99.90
23671;DHT22;12012;51.998;7.614;2023-12-14T05:16:24;5.40;99.90
23671;DHT22;12012;51.998;7.614;2023-12-14T05:18:55;5.40;99.90
23671;DHT22;12012;51.998;7.614;2023-12-14T05:21:22;5.40;99.90
23671;DHT22;12012;51.998;7.614;2023-12-14T05:23:48;5.40;99.90
23671;DHT22;12012;51.998;7.614;2023-12-14T05:26:13;5.40;99.90
23671;DHT22;12012;51.998;7.614;2023-12-14T05:28:39;5.40;99.90
23671;DHT22;12012;51.998;7.614;2023-12-14T05:31:05;5.40;99.90
23671;DHT22;12012;51.998;7.614;2023-12-14T05:33:30;5.40;99.90
23671;DHT22;12012;51.998;7.614;2023-12-14T05:35:57;5.40;99.90
23671;DHT22;12012;51.998;7.614;2023-12-14T05:38:22;5.40;99.90
23671;DHT22;12012;51.998;7.614;2023-12-14T05:40:48;5.40;99.90
23671;DHT22;12012;51.998;7.614;2023-12-14T05:43:13;5.40;99.90
23671;DHT22;12012;51.998;7.614;2023-12-14T05:45:39;5.50;99.90
23671;DHT22;12012;51.998;7.614;2023-12-14T05:48:05;5.40;99.90
23671;DHT22;12012;51.998;7.614;2023-12-14T05:50:33;5.40;99.90
23671;DHT22;12012;51.998;7.614;2023-12-14T05:52:59;5.40;99.90
23671;DHT22;12012;51.998;7.614;2023-12-14T05:55:24;5.40;99.90
23671;DHT22;12012;51.998;7.614;2023-12-14T05:57:50;5.40;99.90
23671;DHT22;12012;51.998;7.614;2023-12-14T06:00:18;5.40;99.90
23671;DHT22;12012;51.998;7.614;2023-12-14T06:02:43;5.40;99.90
23671;DHT22;12012;51.998;7.614;2023-12-14T06:05:09;5.40;99.90
23671;DHT22;12012;51.998;7.614;2023-12-14T06:07:35;5.40;99.90
23671;DHT22;12012;51.998;7.614;2023-12-14T06:10:00;5.40;99.90
23671;DHT22;12012;51.998;7.614;2023-12-14T06:12:27;5.40;99.90
23671;DHT22;12012;51.998;7.614;2023-12-14T06:14:52;5.30;99.90
23671;DHT22;12012;51.998;7.614;2023-12-14T06:17:18;5.40;99.90
23671;DHT22;12012;51.998;7.614;2023-12-14T06:19:44;5.30;99.90
23671;DHT22;12012;51.998;7.614;2023-12-14T06:22:09;5.40;99.90
23671;DHT22;12012;51.998;7.614;2023-12-14T06:24:35;5.40;99.90
23671;DHT22;12012;51.998;7.614;2023-12-14T06:27:00;5.40;99.90
23671;DHT22;12012;51.998;7.614;2023-12-14T06:29:26;5.40;99.90
23671;DHT22;12012;51.998;7.614;2023-12-14T06:31:52;5.40;99.90
23671;DHT22;12012;51.998;7.614;2023-12-14T06:34:17;5.40;99.90
23671;DHT22;12012;51.998;7.614;2023-12-14T06:36:44;5.40;99.90
23671;DHT22;12012;51.998;7.614;2023-12-14T06:39:10;5.40;99.90
23671;DHT22;12012;51.998;7.614;2023-12-14T06:41:36;5.40;99.90
23671;DHT22;12012;51.998;7.614;2023-12-14T06:44:02;5.40;99.90
23671;DHT22;12012;51.998;7.614;2023-12-14T06:46:28;5.40;99.90
23671;DHT22;12012;51.998;7.614;2023-12-14T06:48:54;5.40;99.90
23671;DHT22;12012;51.998;7.614;2023-12-14T06:51:20;5.40;99.90
23671;DHT22;12012;51.998;7.614;2023-12-14T06:53:46;5.40;99.90
23671;DHT22;12012;51.998;7.614;2023-12-14T06:56:13;5.30;99.90
23671;DHT22;12012;51.998;7.614;2023-12-14T06:58:44;5.30;99.90
23671;DHT22;12012;51.998;7.614;2023-12-14T07:01:13;5.30;99.90
23671;DHT22;12012;51.998;7.614;2023-12-14T07:03:40;5.30;99.90
23671;DHT22;12012;51.998;7.614;2023-12-14T07:06:07;5.40;99.90
23671;DHT22;12012;51.998;7.614;2023-12-14T07:08:33;5.40;99.90
23671;DHT22;12012;51.998;7.614;2023-12-14T07:10:58;5.40;99.90
23671;DHT22;12012;51.998;7.614;2023-12-14T07:13:24;5.30;99.90
23671;DHT22;12012;51.998;7.614;2023-12-14T07:15:58;5.30;99.90
23671;DHT22;12012;51.998;7.614;2023-12-14T07:18:24;5.30;99.90
23671;DHT22;12012;51.998;7.614;2023-12-14T07:20:49;5.30;99.90
23671;DHT22;12012;51.998;7.614;2023-12-14T07:23:15;5.30;99.90
23671;DHT22;12012;51.998;7.614;2023-12-14T07:25:41;5.40;99.90
23671;DHT22;12012;51.998;7.614;2023-12-14T07:28:06;5.30;99.90
23671;DHT22;12012;51.998;7.614;2023-12-14T07:30:32;5.30;99.90
23671;DHT22;12012;51.998;7.614;2023-12-14T07:32:57;5.30;99.90
23671;DHT22;12012;51.998;7.614;2023-12-14T07:35:23;5.30;99.90
23671;DHT22;12012;51.998;7.614;2023-12-14T07:37:48;5.30;99.90
23671;DHT22;12012;51.998;7.614;2023-12-14T07:40:14;5.20;99.90
23671;DHT22;12012;51.998;7.614;2023-12-14T07:42:39;5.20;99.90
23671;DHT22;12012;51.998;7.614;2023-12-14T07:45:05;5.20;99.90
23671;DHT22;12012;51.998;7.614;2023-12-14T07:47:31;5.20;99.90
23671;DHT22;12012;51.998;7.614;2023-12-14T07:49:57;5.20;99.90
23671;DHT22;12012;51.998;7.614;2023-12-14T07:52:22;5.20;99.90
23671;DHT22;12012;51.998;7.614;2023-12-14T07:54:48;5.10;99.90
23671;DHT22;12012;51.998;7.614;2023-12-14T07:57:13;5.10;99.90
23671;DHT22;12012;51.998;7.614;2023-12-14T07:59:39;5.10;99.90
23671;DHT22;12012;51.998;7.614;2023-12-14T08:02:05;5.10;99.90
23671;DHT22;12012;51.998;7.614;2023-12-14T08:04:30;5.10;99.90
23671;DHT22;12012;51.998;7.614;2023-12-14T08:06:56;5.10;99.90
23671;DHT22;12012;51.998;7.614;2023-12-14T08:09:22;5.10;99.90
23671;DHT22;12012;51.998;7.614;2023-12-14T08:11:48;5.10;99.90
23671;DHT22;12012;51.998;7.614;2023-12-14T08:14:13;5.10;99.90
23671;DHT22;12012;51.998;7.614;2023-12-14T08:16:40;5.20;99.90
23671;DHT22;12012;51.998;7.614;2023-12-14T08:19:05;5.20;99.90
23671;DHT22;12012;51.998;7.614;2023-12-14T08:21:31;5.20;99.90
23671;DHT22;12012;51.998;7.614;2023-12-14T08:23:56;5.20;99.90
23671;DHT22;12012;51.998;7.614;2023-12-14T08:26:22;5.20;99.90
23671;DHT22;12012;51.998;7.614;2023-12-14T08:28:48;5.20;99.90
23671;DHT22;12012;51.998;7.614;2023-12-14T08:31:13;5.20;99.90
23671;DHT22;12012;51.998;7.614;2023-12-14T08:33:41;5.20;99.90
23671;DHT22;12012;51.998;7.614;2023-12-14T08:36:08;5.20;99.90
23671;DHT22;12012;51.998;7.614;2023-12-14T08:38:33;5.20;99.90
23671;DHT22;12012;51.998;7.614;2023-12-14T08:40:59;5.30;99.90
23671;DHT22;12012;51.998;7.614;2023-12-14T08:43:25;5.20;99.90
23671;DHT22;12012;51.998;7.614;2023-12-14T08:45:54;5.30;99.90
23671;DHT22;12012;51.998;7.614;2023-12-14T08:48:20;5.30;99.90
23671;DHT22;12012;51.998;7.614;2023-12-14T08:50:46;5.30;99.90
23671;DHT22;12012;51.998;7.614;2023-12-14T08:53:12;5.30;99.90
23671;DHT22;12012;51.998;7.614;2023-12-14T08:55:37;5.30;99.90
23671;DHT22;12012;51.998;7.614;2023-12-14T08:58:03;5.30;99.90
23671;DHT22;12012;51.998;7.614;2023-12-14T09:00:28;5.30;99.90
23671;DHT22;12012;51.998;7.614;2023-12-14T09:02:54;5.30;99.90
23671;DHT22;12012;51.998;7.614;2023-12-14T09:05:20;5.30;99.90
23671;DHT22;12012;51.998;7.614;2023-12-14T09:07:46;5.30;99.90
23671;DHT22;12012;51.998;7.614;2023-12-14T09:10:12;5.40;99.90
23671;DHT22;12012;51.998;7.614;2023-12-14T09:12:37;5.30;99.90
23671;DHT22;12012;51.998;7.614;2023-12-14T09:15:04;5.40;99.90
23671;DHT22;12012;51.998;7.614;2023-12-14T09:17:29;5.40;99.90
23671;DHT22;12012;51.998;7.614;2023-12-14T09:20:01;5.50;99.90
23671;DHT22;12012;51.998;7.614;2023-12-14T09:22:30;5.60;99.90
23671;DHT22;12012;51.998;7.614;2023-12-14T09:24:56;5.60;99.90
23671;DHT22;12012;51.998;7.614;2023-12-14T09:27:21;5.60;99.90
23671;DHT22;12012;51.998;7.614;2023-12-14T09:29:47;5.60;99.90
23671;DHT22;12012;51.998;7.614;2023-12-14T09:32:13;5.50;99.90
23671;DHT22;12012;51.998;7.614;2023-12-14T09:34:38;5.60;99.90
23671;DHT22;12012;51.998;7.614;2023-12-14T09:37:04;5.50;99.90
23671;DHT22;12012;51.998;7.614;2023-12-14T09:39:30;5.50;99.90
23671;DHT22;12012;51.998;7.614;2023-12-14T09:42:06;5.60;99.90
23671;DHT22;12012;51.998;7.614;2023-12-14T09:44:33;5.60;99.90
23671;DHT22;12012;51.998;7.614;2023-12-14T09:47:02;5.60;99.90
23671;DHT22;12012;51.998;7.614;2023-12-14T09:49:29;5.60;99.90
23671;DHT22;12012;51.998;7.614;2023-12-14T09:51:59;5.60;99.90
23671;DHT22;12012;51.998;7.614;2023-12-14T09:54:27;5.60;99.90
23671;DHT22;12012;51.998;7.614;2023-12-14T09:56:53;5.60;99.90
23671;DHT22;12012;51.998;7.614;2023-12-14T09:59:20;5.60;99.90
23671;DHT22;12012;51.998;7.614;2023-12-14T10:01:46;5.60;99.90
23671;DHT22;12012;51.998;7.614;2023-12-14T10:04:16;5.60;99.90
23671;DHT22;12012;51.998;7.614;2023-12-14T10:06:44;5.60;99.90
23671;DHT22;12012;51.998;7.614;2023-12-14T10:09:10;5.60;99.90
23671;DHT22;12012;51.998;7.614;2023-12-14T10:11:39;5.60;99.90
23671;DHT22;12012;51.998;7.614;2023-12-14T10:14:31;5.50;99.90
23671;DHT22;12012;51.998;7.614;2023-12-14T10:16:58;5.60;99.90
23671;DHT22;12012;51.998;7.614;2023-12-14T10:19:23;5.60;99.90
23671;DHT22;12012;51.998;7.614;2023-12-14T10:21:50;5.60;99.90
23671;DHT22;12012;51.998;7.614;2023-12-14T10:24:17;5.60;99.90
23671;DHT22;12012;51.998;7.614;2023-12-14T10:26:45;5.60;99.90
23671;DHT22;12012;51.998;7.614;2023-12-14T10:29:11;5.60;99.90
23671;DHT22;12012;51.998;7.614;2023-12-14T10:31:37;5.60;99.90
23671;DHT22;12012;51.998;7.614;2023-12-14T10:34:09;5.70;99.90
23671;DHT22;12012;51.998;7.614;2023-12-14T10:36:37;5.70;99.90
23671;DHT22;12012;51.998;7.614;2023-12-14T10:39:03;5.70;99.90
23671;DHT22;12012;51.998;7.614;2023-12-14T10:41:31;5.80;99.90
23671;DHT22;12012;51.998;7.614;2023-12-14T10:43:59;5.90;99.90
23671;DHT22;12012;51.998;7.614;2023-12-14T10:46:25;5.90;99.90
23671;DHT22;12012;51.998;7.614;2023-12-14T10:48:52;5.90;99.90
23671;DHT22;12012;51.998;7.614;2023-12-14T10:51:22;6.00;99.90
23671;DHT22;12012;51.998;7.614;2023-12-14T10:53:49;6.00;99.90
23671;DHT22;12012;51.998;7.614;2023-12-14T10:56:16;5.90;99.70
23671;DHT22;12012;51.998;7.614;2023-12-14T10:58:52;5.90;99.90
23671;DHT22;12012;51.998;7.614;2023-12-14T11:01:22;5.80;99.90
23671;DHT22;12012;51.998;7.614;2023-12-14T11:03:55;5.80;99.90
23671;DHT22;12012;51.998;7.614;2023-12-14T11:06:28;5.80;98.30
23671;DHT22;12012;51.998;7.614;2023-12-14T11:09:02;5.70;99.90
23671;DHT22;12012;51.998;7.614;2023-12-14T11:11:54;5.70;98.50
23671;DHT22;12012;51.998;7.614;2023-12-14T11:14:24;5.70;99.90
23671;DHT22;12012;51.998;7.614;2023-12-14T11:16:54;5.70;99.90
23671;DHT22;12012;51.998;7.614;2023-12-14T11:22:11;5.80;99.90
23671;DHT22;12012;51.998;7.614;2023-12-14T11:24:46;5.80;98.70
23671;DHT22;12012;51.998;7.614;2023-12-14T11:27:15;5.80;95.90
23671;DHT22;12012;51.998;7.614;2023-12-14T11:29:42;5.80;96.40
23671;DHT22;12012;51.998;7.614;2023-12-14T11:32:07;5.80;95.20
23671;DHT22;12012;51.998;7.614;2023-12-14T11:34:33;5.80;98.60
23671;DHT22;12012;51.998;7.614;2023-12-14T11:36:58;5.90;98.90
23671;DHT22;12012;51.998;7.614;2023-12-14T11:39:24;5.90;95.90
23671;DHT22;12012;51.998;7.614;2023-12-14T11:44:25;5.90;98.40
23671;DHT22;12012;51.998;7.614;2023-12-14T11:46:51;6.00;99.90
23671;DHT22;12012;51.998;7.614;2023-12-14T11:49:16;6.20;99.90
23671;DHT22;12012;51.998;7.614;2023-12-14T11:51:46;6.30;98.40
23671;DHT22;12012;51.998;7.614;2023-12-14T11:54:11;6.30;98.20
23671;DHT22;12012;51.998;7.614;2023-12-14T11:56:37;6.30;98.80
23671;DHT22;12012;51.998;7.614;2023-12-14T11:59:02;6.30;97.60
23671;DHT22;12012;51.998;7.614;2023-12-14T12:01:28;6.30;94.70
23671;DHT22;12012;51.998;7.614;2023-12-14T12:03:56;6.30;93.00
23671;DHT22;12012;51.998;7.614;2023-12-14T12:06:26;6.20;95.40
23671;DHT22;12012;51.998;7.614;2023-12-14T12:08:56;6.20;95.40
23671;DHT22;12012;51.998;7.614;2023-12-14T12:11:23;6.20;94.90
23671;DHT22;12012;51.998;7.614;2023-12-14T12:13:57;6.20;96.60
23671;DHT22;12012;51.998;7.614;2023-12-14T12:16:23;6.20;96.60
23671;DHT22;12012;51.998;7.614;2023-12-14T12:18:49;6.20;97.60
23671;DHT22;12012;51.998;7.614;2023-12-14T12:21:16;6.30;98.20
23671;DHT22;12012;51.998;7.614;2023-12-14T12:23:41;6.40;97.70
23671;DHT22;12012;51.998;7.614;2023-12-14T12:26:07;6.40;97.80
23671;DHT22;12012;51.998;7.614;2023-12-14T12:28:33;6.40;95.40
23671;DHT22;12012;51.998;7.614;2023-12-14T12:30:59;6.40;93.90
23671;DHT22;12012;51.998;7.614;2023-12-14T12:33:25;6.40;93.30
23671;DHT22;12012;51.998;7.614;2023-12-14T12:35:51;6.40;94.50
23671;DHT22;12012;51.998;7.614;2023-12-14T12:38:17;6.60;99.90
23671;DHT22;12012;51.998;7.614;2023-12-14T12:40:44;7.00;96.20
23671;DHT22;12012;51.998;7.614;2023-12-14T12:43:10;7.10;85.70
23671;DHT22;12012;51.998;7.614;2023-12-14T12:45:37;7.10;75.10
23671;DHT22;12012;51.998;7.614;2023-12-14T12:48:03;7.10;72.50
23671;DHT22;12012;51.998;7.614;2023-12-14T12:50:30;7.00;78.20
23671;DHT22;12012;51.998;7.614;2023-12-14T12:52:55;7.00;72.80
23671;DHT22;12012;51.998;7.614;2023-12-14T12:55:21;6.90;75.70
23671;DHT22;12012;51.998;7.614;2023-12-14T12:57:47;6.80;81.70
23671;DHT22;12012;51.998;7.614;2023-12-14T13:00:13;6.70;84.90
23671;DHT22;12012;51.998;7.614;2023-12-14T13:02:40;6.70;75.90
23671;DHT22;12012;51.998;7.614;2023-12-14T13:05:08;6.60;69.50
23671;DHT22;12012;51.998;7.614;2023-12-14T13:07:35;6.50;62.60
23671;DHT22;12012;51.998;7.614;2023-12-14T13:10:05;6.40;68.80
23671;DHT22;12012;51.998;7.614;2023-12-14T13:12:32;6.30;72.20
23671;DHT22;12012;51.998;7.614;2023-12-14T13:14:59;6.20;71.80
23671;DHT22;12012;51.998;7.614;2023-12-14T13:17:24;6.20;78.40
23671;DHT22;12012;51.998;7.614;2023-12-14T13:19:50;6.10;74.20
23671;DHT22;12012;51.998;7.614;2023-12-14T13:22:16;6.10;73.40
23671;DHT22;12012;51.998;7.614;2023-12-14T13:24:42;6.00;75.80
23671;DHT22;12012;51.998;7.614;2023-12-14T13:27:07;6.00;71.80
23671;DHT22;12012;51.998;7.614;2023-12-14T13:29:33;5.90;81.70
23671;DHT22;12012;51.998;7.614;2023-12-14T13:32:00;5.90;83.90
23671;DHT22;12012;51.998;7.614;2023-12-14T13:34:26;5.90;76.40
23671;DHT22;12012;51.998;7.614;2023-12-14T13:36:53;5.90;73.50
23671;DHT22;12012;51.998;7.614;2023-12-14T13:39:19;5.90;81.70
23671;DHT22;12012;51.998;7.614;2023-12-14T13:41:45;5.80;74.10
23671;DHT22;12012;51.998;7.614;2023-12-14T13:44:10;5.80;83.40
23671;DHT22;12012;51.998;7.614;2023-12-14T13:46:36;5.80;81.30
23671;DHT22;12012;51.998;7.614;2023-12-14T13:49:02;5.80;84.90
23671;DHT22;12012;51.998;7.614;2023-12-14T13:51:28;5.80;79.70
23671;DHT22;12012;51.998;7.614;2023-12-14T13:53:53;5.80;72.30
23671;DHT22;12012;51.998;7.614;2023-12-14T13:56:19;5.80;81.70
23671;DHT22;12012;51.998;7.614;2023-12-14T13:58:45;5.80;74.30
23671;DHT22;12012;51.998;7.614;2023-12-14T14:01:11;5.70;58.10
23671;DHT22;12012;51.998;7.614;2023-12-14T14:03:37;5.70;71.30
23671;DHT22;12012;51.998;7.614;2023-12-14T14:06:04;5.70;76.10
23671;DHT22;12012;51.998;7.614;2023-12-14T14:08:30;5.70;76.00
23671;DHT22;12012;51.998;7.614;2023-12-14T14:10:57;5.60;76.90
23671;DHT22;12012;51.998;7.614;2023-12-14T14:13:23;5.60;76.40
23671;DHT22;12012;51.998;7.614;2023-12-14T14:15:48;5.60;74.10
23671;DHT22;12012;51.998;7.614;2023-12-14T14:18:14;5.60;74.10
23671;DHT22;12012;51.998;7.614;2023-12-14T14:20:39;5.60;80.50
23671;DHT22;12012;51.998;7.614;2023-12-14T14:23:05;5.60;79.00
23671;DHT22;12012;51.998;7.614;2023-12-14T14:25:30;5.60;79.60
23671;DHT22;12012;51.998;7.614;2023-12-14T14:27:56;5.60;80.50
23671;DHT22;12012;51.998;7.614;2023-12-14T14:30:22;5.60;80.30
23671;DHT22;12012;51.998;7.614;2023-12-14T14:32:48;5.60;77.30
23671;DHT22;12012;51.998;7.614;2023-12-14T14:35:14;5.50;81.00
23671;DHT22;12012;51.998;7.614;2023-12-14T14:37:39;5.50;82.20
23671;DHT22;12012;51.998;7.614;2023-12-14T14:40:10;5.60;79.70
23671;DHT22;12012;51.998;7.614;2023-12-14T14:42:36;5.50;83.50
23671;DHT22;12012;51.998;7.614;2023-12-14T14:45:02;5.50;76.80
23671;DHT22;12012;51.998;7.614;2023-12-14T14:47:27;5.50;73.70
23671;DHT22;12012;51.998;7.614;2023-12-14T14:49:53;5.50;72.10
23671;DHT22;12012;51.998;7.614;2023-12-14T14:52:22;5.50;80.10
23671;DHT22;12012;51.998;7.614;2023-12-14T14:54:48;5.50;78.40
23671;DHT22;12012;51.998;7.614;2023-12-14T14:57:14;5.50;74.70
23671;DHT22;12012;51.998;7.614;2023-12-14T14:59:39;5.40;77.40
23671;DHT22;12012;51.998;7.614;2023-12-14T15:02:05;5.40;76.90
23671;DHT22;12012;51.998;7.614;2023-12-14T15:04:30;5.40;80.50
23671;DHT22;12012;51.998;7.614;2023-12-14T15:06:57;5.40;75.20
23671;DHT22;12012;51.998;7.614;2023-12-14T15:09:23;5.40;75.80
23671;DHT22;12012;51.998;7.614;2023-12-14T15:11:48;5.40;74.60
23671;DHT22;12012;51.998;7.614;2023-12-14T15:14:14;5.40;75.50
23671;DHT22;12012;51.998;7.614;2023-12-14T15:16:40;5.30;79.20
23671;DHT22;12012;51.998;7.614;2023-12-14T15:19:05;5.30;75.10
23671;DHT22;12012;51.998;7.614;2023-12-14T15:21:31;5.30;70.70
23671;DHT22;12012;51.998;7.614;2023-12-14T15:23:56;5.30;72.00
23671;DHT22;12012;51.998;7.614;2023-12-14T15:26:22;5.30;71.60
23671;DHT22;12012;51.998;7.614;2023-12-14T15:28:47;5.30;71.00
23671;DHT22;12012;51.998;7.614;2023-12-14T15:31:14;5.20;71.10
23671;DHT22;12012;51.998;7.614;2023-12-14T15:33:39;5.30;92.90
23671;DHT22;12012;51.998;7.614;2023-12-14T15:36:05;5.50;90.00
23671;DHT22;12012;51.998;7.614;2023-12-14T15:38:31;5.50;78.30
23671;DHT22;12012;51.998;7.614;2023-12-14T15:40:56;5.60;77.50
23671;DHT22;12012;51.998;7.614;2023-12-14T15:43:22;5.50;74.10